Santa Rosa de Viterbo, Brazil
Current Conditions -  °F | °C
As of 10:00 AM on Friday 28 Nov 2014 (Local Time) from SBRP Reporting Station
Overcast Overcast  
Wind Chill: 75°   Ceiling: 2400
Heat Index: 75°   Visibility: 6mi
Dew Point: 68°   Wind: 7mph
Humidity: 78%   Direction: 140°SE
Pressure: 29.97"   Gusts: NA
Location:  21.47°S, 47.36°W
Report Text: SBRP 281200Z 14006KT 9000 FEW010 SCT018 OVC024 24/20 Q1015
Loading
Personal Weather Stations






























Interactive Weather Map New forecast layout! Learn more

10-Day Weather Forecast

Advertisements
Track Severe Weather on mobile